Latest Weather Observations for Richmond

IDQ60801

Issued at 9:35 pm EST Saturday 1 November 2014 (issued every 30 minutes, with the page automatically refreshed every 10 minutes)

About weather observations | Map of weather stations | Latest weather observations for QLD | Other Formats
Station Details ID: 030161 Name: RICHMOND AIRPORT Lat: -20.70 Lon: 143.12 Height: 206.3 m
Data from the previous 72 hours. | See also: Recent months at Richmond
Date/Time
EST
Temp
°C
App
Temp
°C
Dew
Point
Rel
Hum
%
Delta-T
°C
Wind Press
QNH
hPa
Press
MSL
hPa
Rain
since 9 am
mm
Dir
 
Spd
km/h
Gust
km/h
Spd
kts
Gust
kts
01/09:30pm 31.8 28.1 8.1 23 13.2 S 17 20 9 11 1011.0 1009.5 0.0
01/09:00pm 32.9 28.5 9.0 23 13.6 SSW 22 28 12 15 1010.7 1009.2 0.0
01/08:30pm 33.5 30.0 10.8 25 13.3 SW 20 24 11 13 1010.3 1008.8 0.0
01/08:00pm 34.0 30.6 11.2 25 13.5 SW 20 26 11 14 1010.0 1008.5 0.0
01/07:30pm 34.5 29.9 11.0 24 13.9 SW 26 35 14 19 1009.9 1008.4 0.0
01/07:00pm 35.3 30.1 11.7 24 14.2 SW 30 39 16 21 1009.2 1007.8 0.0
01/06:30pm 36.1 30.4 13.0 25 14.1 WSW 35 48 19 26 1008.5 1007.1 0.0
01/06:00pm 37.7 33.5 12.3 22 15.5 SW 26 37 14 20 1008.1 1006.7 0.0
01/05:30pm 38.2 34.8 11.3 20 16.2 W 20 28 11 15 1007.7 1006.3 0.0
01/05:00pm 38.8 35.6 11.8 20 16.4 W 20 32 11 17 1007.5 1006.1 0.0
01/04:30pm 39.4 34.9 11.5 19 16.9 W 26 35 14 19 1007.3 1005.9 0.0
01/04:00pm 39.7 35.5 12.5 20 16.8 WSW 26 35 14 19 1007.3 1005.9 0.0
01/03:30pm 40.0 36.1 12.0 19 17.1 WSW 24 33 13 18 1007.7 1006.3 0.0
01/03:00pm 39.3 35.4 12.2 20 16.6 W 24 33 13 18 1008.1 1006.7 0.0
01/02:30pm 39.7 36.3 12.5 20 16.7 W 22 30 12 16 1008.3 1006.9 0.0
01/02:00pm 39.1 35.6 13.5 22 16.0 WSW 24 32 13 17 1008.9 1007.5 0.0
01/01:30pm 38.9 34.4 12.6 21 16.2 WNW 28 39 15 21 1009.6 1008.1 0.0
01/01:00pm 38.9 35.0 13.3 22 15.9 W 26 35 14 19 1010.2 1008.7 0.0
01/12:30pm 37.9 34.3 13.2 23 15.3 W 24 33 13 18 1010.5 1009.0 0.0
01/12:00pm 37.3 33.6 12.7 23 15.1 NNW 24 30 13 16 1011.1 1009.6 0.0
01/11:30am 37.3 33.2 12.7 23 15.1 W 26 35 14 19 1011.7 1010.3 0.0
01/11:00am 36.2 33.0 13.0 24 14.2 NW 22 33 12 18 1012.2 1010.8 0.0
01/10:30am 35.8 32.7 13.3 26 13.8 NNW 22 32 12 17 1012.5 1011.1 0.0
01/10:00am 34.2 30.4 12.5 27 13.1 NNW 24 35 13 19 1012.8 1011.4 0.0
01/09:30am 33.7 29.4 12.1 27 12.9 NNW 26 35 14 19 1012.9 1011.6 0.0
01/09:00am 33.1 28.8 12.1 27 12.5 NNW 26 35 14 19 1013.0 1011.8 0.0
01/08:30am 32.4 27.7 12.1 29 12.1 N 28 37 15 20 1012.9 1011.6 0.0
01/08:00am 30.9 25.1 10.8 29 11.7 N 32 41 17 22 1012.5 1011.2 0.0
01/07:30am 30.6 25.3 11.1 30 11.3 N 30 46 16 25 1012.1 1010.8 0.0
01/07:14am 30.3 24.5 10.8 30 11.3 N 32 41 17 22 1011.9 1010.6 0.0
01/07:00am 29.2 28.8 13.0 37 9.7 NNW 7 17 4 9 1011.9 1010.6 0.0
01/06:30am 26.7 26.4 13.4 43 7.9 NNW 7 9 4 5 1011.6 1010.3 0.0
01/06:00am 26.4 25.7 14.2 47 7.3 N 11 13 6 7 1010.9 1009.6 0.0
01/05:30am 27.1 26.6 14.8 47 7.5 N 11 13 6 7 1010.4 1009.1 0.0
01/05:00am 27.1 26.3 14.1 44 7.8 N 11 13 6 7 1010.1 1008.8 0.0
01/04:30am 28.1 27.1 14.7 44 8.2 N 13 19 7 10 1009.6 1008.3 0.0
01/04:00am 27.2 25.8 13.5 42 8.2 N 13 17 7 9 1009.3 1008.1 0.0
01/03:30am 26.8 25.0 12.1 40 8.5 N 13 15 7 8 1009.0 1007.8 0.0
01/03:00am 26.9 25.0 11.8 39 8.8 NNE 13 13 7 7 1008.7 1007.5 0.0
01/02:30am 26.9 24.9 11.4 38 8.9 NE 13 17 7 9 1008.7 1007.5 0.0
01/02:00am 27.8 26.8 12.2 38 9.1 N 9 11 5 6 1008.5 1007.2 0.0
01/01:30am 28.2 26.6 11.7 36 9.6 N 11 13 6 7 1008.3 1007.0 0.0
01/01:00am 29.2 27.3 11.7 34 10.2 N 13 15 7 8 1008.3 1007.0 0.0
01/12:30am 29.5 27.5 11.5 33 10.5 N 13 17 7 9 1008.5 1007.2 0.0
01/12:00am 29.6 27.1 11.2 32 10.7 NNE 15 17 8 9 1008.8 1007.6 0.0
 
Date/Time
EST
Temp
°C
App
Temp
°C
Dew
Point
Rel
Hum
%
Delta-T
°C
Wind Press
QNH
hPa
Press
MSL
hPa
Rain
since 9 am
mm
Dir
 
Spd
km/h
Gust
km/h
Spd
kts
Gust
kts
31/11:30pm 29.8 27.5 10.4 30 11.1 NNE 13 15 7 8 1008.9 1007.7 0.0
31/11:00pm 30.9 28.5 11.3 30 11.5 N 15 17 8 9 1009.0 1007.8 0.0
31/10:30pm 31.2 29.1 11.1 29 11.7 N 13 17 7 9 1009.1 1007.9 0.0
31/10:00pm 31.8 29.3 11.0 28 12.2 NNW 15 17 8 9 1009.2 1008.0 0.0
31/09:30pm 32.2 30.2 11.4 28 12.2 NNW 13 17 7 9 1009.1 1007.9 0.0
31/09:00pm 33.0 30.8 10.9 26 13.0 NNW 13 17 7 9 1008.7 1007.5 0.0
31/08:30pm 33.8 31.1 11.6 26 13.2 NNW 17 20 9 11 1008.5 1007.2 0.0
31/08:00pm 34.3 30.9 11.4 25 13.6 NNW 20 24 11 13 1008.3 1007.0 0.0
31/07:30pm 33.9 31.5 9.9 23 13.9 NNW 13 15 7 8 1007.9 1006.6 0.0
31/07:00pm 35.4 33.1 10.4 22 14.7 NNW 13 17 7 9 1007.6 1006.3 0.0
31/06:30pm 36.4 32.8 9.8 20 15.6 NW 19 24 10 13 1007.3 1006.0 0.0
31/06:00pm 37.6 33.3 9.2 18 16.6 NW 22 30 12 16 1007.0 1005.7 0.0
31/05:30pm 38.6 33.4 7.4 15 17.8 WNW 24 32 13 17 1006.9 1005.6 0.0
31/05:00pm 38.8 34.6 7.5 15 17.9 NNW 19 24 10 13 1006.7 1005.4 0.0
31/04:30pm 39.9 34.5 6.3 13 18.9 NNW 24 30 13 16 1006.5 1005.2 0.0
31/04:00pm 39.6 34.5 6.1 13 18.9 WNW 22 33 12 18 1006.7 1005.4 0.0
31/03:30pm 40.3 35.2 7.7 14 18.8 WNW 24 32 13 17 1006.7 1005.4 0.0
31/03:00pm 39.6 35.1 7.1 14 18.6 W 20 33 11 18 1007.0 1005.7 0.0
31/02:30pm 39.4 36.1 8.0 15 18.1 NW 15 28 8 15 1007.2 1005.9 0.0
31/02:00pm 39.6 35.4 8.1 15 18.2 NW 20 26 11 14 1007.5 1006.2 0.0
31/01:30pm 39.2 35.1 11.3 19 16.9 NNW 24 35 13 19 1008.0 1006.7 0.0
31/01:00pm 39.0 34.6 10.4 18 17.1 NW 24 37 13 20 1008.5 1007.2 0.0
31/12:30pm 38.1 32.7 9.6 18 16.7 WNW 28 37 15 20 1009.1 1007.9 0.0
31/12:21pm 39.0 33.7 11.2 19 16.8 NW 30 52 16 28 1009.2 1008.0 0.0
31/12:00pm 37.8 32.8 11.0 20 16.1 NW 28 44 15 24 1009.8 1008.5 0.0
31/11:30am 37.2 31.9 11.2 21 15.6 NNW 30 43 16 23 1010.3 1009.0 0.0
31/11:00am 36.6 31.6 13.4 25 14.3 NNW 32 43 17 23 1010.6 1009.3 0.0
31/10:30am 35.6 29.7 13.7 27 13.5 NNW 37 50 20 27 1010.9 1009.6 0.0
31/10:00am 35.1 30.2 13.8 27 13.2 N 32 44 17 24 1010.9 1009.6 0.0
31/09:30am 34.0 28.8 13.5 29 12.5 NNW 33 43 18 23 1011.1 1009.8 0.0
31/09:00am 33.3 27.8 11.8 27 12.8 N 32 46 17 25 1011.3 1010.0 0.0
31/08:36am 32.7 27.0 11.3 27 12.6 N 32 50 17 27 1011.5 1010.2 0.0
31/08:30am 32.9 27.6 11.4 27 12.7 NNW 30 43 16 23 1011.5 1010.2 0.0
31/08:00am 31.6 26.0 10.3 27 12.3 N 30 43 16 23 1011.3 1010.0 0.0
31/07:30am 30.8 25.4 9.6 27 12.1 N 28 39 15 21 1011.2 1009.9 0.0
31/07:00am 30.0 25.4 9.5 28 11.6 N 24 37 13 20 1011.1 1009.8 0.0
31/06:30am 29.5 25.3 9.6 29 11.2 N 22 32 12 17 1010.9 1009.6 0.0
31/06:00am 29.2 26.0 9.8 30 11.0 N 17 24 9 13 1010.4 1009.1 0.0
31/05:30am 29.9 25.7 9.9 29 11.4 N 22 35 12 19 1009.9 1008.6 0.0
31/05:00am 30.2 25.7 10.2 29 11.5 N 24 32 13 17 1009.3 1008.1 0.0
31/04:30am 30.3 26.5 9.8 28 11.7 N 20 30 11 16 1008.8 1007.6 0.0
31/04:00am 30.7 26.6 10.1 28 11.8 N 22 30 12 16 1008.4 1007.1 0.0
31/03:30am 30.6 26.9 10.0 28 11.8 N 20 28 11 15 1008.2 1006.9 0.0
31/03:00am 30.5 26.6 9.4 27 12.0 N 20 26 11 14 1008.0 1006.7 0.0
31/02:30am 31.2 27.5 9.4 26 12.4 N 19 24 10 13 1007.9 1006.6 0.0
31/02:00am 30.6 27.4 8.3 25 12.4 NNE 15 19 8 10 1008.2 1006.9 0.0
31/01:30am 28.6 24.3 7.2 26 11.6 E 19 26 10 14 1008.3 1007.0 0.0
31/01:00am 28.3 23.7 5.8 24 11.9 SW 19 24 10 13 1007.8 1006.5 0.0
31/12:30am 27.8 24.3 5.4 24 11.7 NW 13 15 7 8 1007.9 1006.6 0.0
31/12:00am 28.5 24.6 5.4 23 12.1 W 15 17 8 9 1008.2 1006.9 0.0
 
Date/Time
EST
Temp
°C
App
Temp
°C
Dew
Point
Rel
Hum
%
Delta-T
°C
Wind Press
QNH
hPa
Press
MSL
hPa
Rain
since 9 am
mm
Dir
 
Spd
km/h
Gust
km/h
Spd
kts
Gust
kts
30/11:30pm 29.2 24.7 6.0 23 12.3 W 19 24 10 13 1008.4 1007.1 0.0
30/11:00pm 28.9 25.7 5.1 22 12.5 WNW 11 13 6 7 1008.4 1007.1 0.0
30/10:30pm 29.1 25.5 5.2 22 12.5 WNW 13 15 7 8 1008.5 1007.2 0.0
30/10:00pm 29.7 26.9 5.1 21 12.9 W 9 13 5 7 1008.6 1007.4 0.0
30/09:30pm 29.3 25.8 3.3 19 13.2 NW 11 13 6 7 1008.4 1007.1 0.0
30/09:00pm 32.2 28.9 6.4 20 14.1 NNW 13 13 7 7 1008.0 1006.7 0.0
30/08:30pm 32.5 29.3 5.1 18 14.6 NNW 11 15 6 8 1007.8 1006.5 0.0
30/08:00pm 33.4 30.2 5.0 17 15.2 N 11 13 6 7 1007.5 1006.2 0.0
30/07:30pm 34.1 30.8 4.7 16 15.7 N 11 11 6 6 1007.2 1005.9 0.0
30/07:00pm 35.6 32.8 5.0 15 16.6 N 9 11 5 6 1006.9 1005.6 0.0
30/06:30pm 37.1 33.9 5.2 14 17.5 NNW 11 15 6 8 1006.7 1005.4 0.0
30/06:00pm 38.6 35.1 5.3 13 18.4 NNW 13 19 7 10 1006.4 1005.1 0.0
30/05:30pm 39.1 35.7 5.7 13 18.6 NNW 13 22 7 12 1006.2 1004.9 0.0
30/05:00pm 40.1 35.4 5.3 12 19.4 WNW 19 30 10 16 1006.1 1004.8 0.0
30/04:30pm 40.8 36.0 5.8 12 19.7 W 20 30 11 16 1006.1 1004.8 0.0
30/04:00pm 39.9 37.1 5.1 12 19.3 NW 9 13 5 7 1006.3 1005.0 0.0
30/03:34pm 40.9 34.6 5.9 12 19.7 N 28 35 15 19 1006.3 1005.0 0.0
30/03:30pm 40.1 37.3 5.3 12 19.4 W 9 17 5 9 1006.3 1005.0 0.0
30/03:00pm 40.1 35.0 4.0 11 19.7 NNW 20 30 11 16 1006.8 1005.5 0.0
30/02:41pm 40.5 33.5 4.3 11 19.9 NW 30 35 16 19 1006.9 1005.6 0.0
30/02:30pm 40.6 37.3 4.4 11 19.9 NW 11 17 6 9 1007.1 1005.8 0.0
30/02:14pm 41.6 35.2 5.2 11 20.4 NW 28 41 15 22 1007.2 1005.9 0.0
30/02:00pm 40.1 37.3 5.3 12 19.4 WNW 9 22 5 12 1007.4 1006.1 0.0
30/01:30pm 40.4 35.0 4.3 11 19.8 NW 22 39 12 21 1008.1 1006.8 0.0
30/01:00pm 39.8 35.5 5.1 12 19.2 N 17 32 9 17 1008.5 1007.2 0.0
30/12:30pm 39.3 33.6 4.7 12 19.0 NNW 24 35 13 19 1009.2 1008.0 0.0
30/12:00pm 39.4 35.2 5.9 13 18.8 N 17 24 9 13 1009.8 1008.5 0.0
30/11:30am 38.4 33.6 7.2 15 17.7 NNW 22 32 12 17 1010.3 1009.0 0.0
30/11:00am 38.8 33.7 7.5 15 17.9 NNW 24 33 13 18 1010.9 1009.6 0.0
30/10:30am 37.1 31.5 8.8 18 16.4 NNW 28 41 15 22 1011.4 1010.1 0.0
30/10:00am 36.1 31.3 8.8 19 15.7 N 24 35 13 19 1011.7 1010.4 0.0
30/09:30am 36.0 30.6 9.5 20 15.4 NNW 28 35 15 19 1012.1 1010.8 0.0
30/09:00am 35.3 30.5 8.9 20 15.2 NNW 24 33 13 18 1012.1 1010.8 0.0
30/08:30am 33.6 28.7 8.3 21 14.3 N 24 32 13 17 1012.0 1010.7 0.0
30/08:00am 31.7 28.8 8.0 23 13.2 N 13 19 7 10 1011.8 1010.5 0.0
30/07:30am 29.3 26.8 8.4 27 11.6 N 11 17 6 9 1011.7 1010.4 0.0
30/07:00am 26.6 23.7 8.1 31 10.1 NNW 13 17 7 9 1011.5 1010.2 0.0
30/06:30am 22.9 19.4 7.0 36 8.3 NNW 15 17 8 9 1011.3 1010.0 0.0
30/06:00am 22.5 19.2 6.3 35 8.3 NW 13 15 7 8 1010.9 1009.6 0.0
30/05:30am 23.0 19.2 5.9 33 8.7 NW 15 17 8 9 1010.6 1009.3 0.0
30/05:00am 22.0 18.4 5.0 33 8.5 WNW 13 15 7 8 1010.3 1009.0 0.0
30/04:30am 22.5 18.2 5.4 33 8.6 WNW 17 19 9 10 1010.2 1008.9 0.0
30/04:00am 22.3 18.2 4.4 31 8.9 W 15 19 8 10 1010.0 1008.7 0.0
30/03:30am 23.5 21.3 5.4 31 9.2 WSW 6 7 3 4 1010.1 1008.8 0.0
30/03:00am 24.8 22.7 6.5 31 9.6 W 7 9 4 5 1010.3 1009.0 0.0
30/02:30am 23.7 20.6 5.6 31 9.2 W 11 13 6 7 1010.3 1009.0 0.0
30/02:00am 24.5 21.2 6.3 31 9.5 W 13 17 7 9 1010.5 1009.2 0.0
30/01:30am 24.6 21.6 5.9 30 9.7 WNW 11 15 6 8 1010.7 1009.4 0.0
30/01:00am 25.0 21.2 5.7 29 10.0 WNW 15 19 8 10 1010.7 1009.4 0.0
30/12:30am 25.7 21.6 6.3 29 10.2 W 17 19 9 10 1010.9 1009.6 0.0
30/12:00am 26.8 23.1 6.2 27 10.8 WNW 15 19 8 10 1011.0 1009.7 0.0
 
Date/Time
EST
Temp
°C
App
Temp
°C
Dew
Point
Rel
Hum
%
Delta-T
°C
Wind Press
QNH
hPa
Press
MSL
hPa
Rain
since 9 am
mm
Dir
 
Spd
km/h
Gust
km/h
Spd
kts
Gust
kts
29/11:30pm 28.8 24.3 6.8 25 11.8 W 20 24 11 13 1011.1 1009.8 0.0
29/11:00pm 28.8 25.3 5.6 23 12.2 WNW 13 19 7 10 1011.2 1009.9 0.0
29/10:30pm 30.9 25.8 6.0 21 13.4 WNW 22 24 12 13 1011.1 1009.8 0.0
29/10:00pm 30.2 26.0 4.0 19 13.6 N 15 17 8 9 1011.0 1009.7 0.0

Other Formats:

Comma delimited format used in spreadsheet applications
http://www.bom.gov.au/fwo/IDQ60801/IDQ60801.94341.axf

JavaScript Object Notation format (JSON) in row-major order
http://www.bom.gov.au/fwo/IDQ60801/IDQ60801.94341.json